createdAt,value
2018-12-08T00:02:10.482Z,14.00
2018-12-08T00:04:40.441Z,13.70
2018-12-08T00:07:09.471Z,14.00
2018-12-08T00:09:38.777Z,13.60
2018-12-08T00:12:07.882Z,13.50
2018-12-08T00:14:37.187Z,14.00
2018-12-08T00:17:06.306Z,14.30
2018-12-08T00:19:35.862Z,13.80
2018-12-08T00:22:05.580Z,14.00
2018-12-08T00:24:34.895Z,14.30
2018-12-08T00:27:04.208Z,14.10
2018-12-08T00:29:33.431Z,14.30
2018-12-08T00:32:02.802Z,14.20
2018-12-08T00:34:32.304Z,14.50
2018-12-08T00:37:01.597Z,14.40
2018-12-08T00:39:30.623Z,14.70
2018-12-08T00:41:59.956Z,14.20
2018-12-08T00:44:29.289Z,14.70
2018-12-08T00:46:58.528Z,14.60
2018-12-08T00:49:27.674Z,14.40
2018-12-08T00:51:56.907Z,14.40
2018-12-08T00:54:26.320Z,14.70
2018-12-08T00:56:56.281Z,14.80
2018-12-08T00:59:25.350Z,14.40
2018-12-08T01:01:54.642Z,14.40
2018-12-08T01:04:23.960Z,14.60
2018-12-08T01:06:53.016Z,14.40
2018-12-08T01:12:01.244Z,14.30
2018-12-08T01:14:30.064Z,14.40
2018-12-08T01:17:01.856Z,14.20
2018-12-08T01:19:35.640Z,14.40
2018-12-08T01:24:41.834Z,14.30
2018-12-08T01:27:17.722Z,14.30
2018-12-08T01:29:51.212Z,14.50
2018-12-08T01:32:22.011Z,14.60
2018-12-08T01:34:51.401Z,14.50
2018-12-08T01:37:22.865Z,14.60
2018-12-08T01:39:52.474Z,14.80
2018-12-08T01:42:24.254Z,14.70
2018-12-08T01:44:54.025Z,14.60
2018-12-08T01:47:24.907Z,14.40
2018-12-08T01:49:55.184Z,14.50
2018-12-08T01:57:30.868Z,14.60
2018-12-08T02:00:00.676Z,14.50
2018-12-08T02:02:30.483Z,14.50
2018-12-08T02:05:02.951Z,14.40
2018-12-08T02:07:34.363Z,14.50
2018-12-08T02:10:05.042Z,14.40
2018-12-08T02:12:35.002Z,14.50
2018-12-08T02:15:03.815Z,14.60
2018-12-08T02:17:33.248Z,14.40
2018-12-08T02:20:03.961Z,14.50
2018-12-08T02:22:33.598Z,14.60
2018-12-08T02:25:02.688Z,14.90
2018-12-08T02:27:32.281Z,14.60
2018-12-08T02:30:02.635Z,14.80
2018-12-08T02:32:33.185Z,14.90
2018-12-08T02:37:49.769Z,15.00
2018-12-08T02:40:21.936Z,15.00
2018-12-08T02:42:51.180Z,15.00
2018-12-08T02:45:23.257Z,15.00
2018-12-08T02:47:52.547Z,15.30
2018-12-08T02:50:22.418Z,14.80
2018-12-08T02:52:52.892Z,14.70
2018-12-08T02:55:23.528Z,14.80
2018-12-08T02:57:53.239Z,15.30
2018-12-08T03:00:23.129Z,15.30
2018-12-08T03:05:27.819Z,15.20
2018-12-08T03:08:00.850Z,14.70
2018-12-08T03:10:30.229Z,14.60
2018-12-08T03:13:02.099Z,14.90
2018-12-08T03:15:34.702Z,14.60
2018-12-08T03:18:04.794Z,14.60
2018-12-08T03:20:36.106Z,15.00
2018-12-08T03:23:08.769Z,15.20
2018-12-08T03:25:40.085Z,15.10
2018-12-08T03:28:09.677Z,14.80
2018-12-08T03:30:41.383Z,15.00
2018-12-08T03:33:11.070Z,15.00
2018-12-08T03:35:40.426Z,15.00
2018-12-08T03:38:10.065Z,14.70
2018-12-08T03:40:39.505Z,14.70
2018-12-08T03:43:10.040Z,14.70
2018-12-08T03:45:40.724Z,14.80
2018-12-08T03:51:03.277Z,14.80
2018-12-08T03:53:32.580Z,15.10
2018-12-08T03:56:02.801Z,14.90
2018-12-08T03:58:33.311Z,15.00
2018-12-08T04:01:03.327Z,15.00
2018-12-08T04:03:32.986Z,15.10
2018-12-08T04:06:04.429Z,15.10
2018-12-08T04:08:33.856Z,15.20
2018-12-08T04:11:07.584Z,15.20
2018-12-08T04:13:38.046Z,15.00
2018-12-08T04:19:03.866Z,15.00
2018-12-08T04:24:34.271Z,15.30
2018-12-08T04:27:04.552Z,15.40
2018-12-08T04:29:36.987Z,14.90
2018-12-08T04:32:07.397Z,14.80
2018-12-08T04:34:37.503Z,15.20
2018-12-08T04:37:08.522Z,14.70
2018-12-08T04:39:40.047Z,14.90
2018-12-08T04:42:11.973Z,14.90
2018-12-08T04:44:43.165Z,15.00
2018-12-08T04:47:16.836Z,14.60
2018-12-08T04:49:46.212Z,14.70
2018-12-08T04:52:15.904Z,14.90
2018-12-08T04:54:45.924Z,15.00
2018-12-08T04:57:19.198Z,15.10
2018-12-08T04:59:48.738Z,15.00
2018-12-08T05:02:18.448Z,15.20
2018-12-08T05:04:48.430Z,15.50
2018-12-08T05:09:51.916Z,15.60
2018-12-08T05:12:20.672Z,15.50
2018-12-08T05:14:50.394Z,15.50
2018-12-08T05:17:20.171Z,15.60
2018-12-08T05:19:49.189Z,15.50
2018-12-08T05:22:18.787Z,15.70
2018-12-08T05:24:47.709Z,15.60
2018-12-08T05:27:16.924Z,15.80
2018-12-08T05:29:45.990Z,15.70
2018-12-08T05:32:17.344Z,15.70
2018-12-08T05:34:48.388Z,15.50
2018-12-08T05:37:18.730Z,15.50
2018-12-08T05:39:47.801Z,15.50
2018-12-08T05:42:18.191Z,16.10
2018-12-08T05:44:48.605Z,15.90
2018-12-08T05:47:17.690Z,15.80
2018-12-08T05:49:48.526Z,15.90
2018-12-08T05:52:17.613Z,15.70
2018-12-08T05:54:46.620Z,15.70
2018-12-08T05:57:16.907Z,15.90
2018-12-08T05:59:52.642Z,15.70
2018-12-08T06:02:23.990Z,15.80
2018-12-08T06:04:54.321Z,15.80
2018-12-08T06:07:24.219Z,15.80
2018-12-08T06:09:54.336Z,15.60
2018-12-08T06:12:25.487Z,15.90
2018-12-08T06:14:55.642Z,15.70
2018-12-08T06:17:27.416Z,15.90
2018-12-08T06:19:56.583Z,15.90
2018-12-08T06:22:26.409Z,15.90
2018-12-08T06:24:56.549Z,15.90
2018-12-08T06:27:25.662Z,16.40
2018-12-08T06:29:54.937Z,15.50
2018-12-08T06:32:23.987Z,16.00
2018-12-08T06:34:52.959Z,15.90
2018-12-08T06:37:21.792Z,15.70
2018-12-08T06:39:50.873Z,15.70
2018-12-08T06:42:20.143Z,15.70
2018-12-08T06:44:49.057Z,15.90
2018-12-08T06:47:18.010Z,16.00
2018-12-08T06:49:47.332Z,15.80
2018-12-08T06:52:16.323Z,16.10
2018-12-08T06:54:45.369Z,15.90
2018-12-08T06:57:14.296Z,16.50
2018-12-08T06:59:43.153Z,16.80
2018-12-08T07:02:12.007Z,16.60
2018-12-08T07:04:40.896Z,16.20
2018-12-08T07:07:09.808Z,16.40
2018-12-08T07:09:38.653Z,16.50
2018-12-08T07:12:07.559Z,15.70
2018-12-08T07:14:36.421Z,16.20
2018-12-08T07:17:05.315Z,16.90
2018-12-08T07:19:34.628Z,18.20
2018-12-08T07:22:03.519Z,17.90
2018-12-08T07:24:32.344Z,17.70
2018-12-08T07:27:01.028Z,18.80
2018-12-08T07:29:29.691Z,19.40
2018-12-08T07:31:58.343Z,18.90
2018-12-08T07:34:27.012Z,19.80
2018-12-08T07:36:55.662Z,19.80
2018-12-08T07:39:24.299Z,20.40
2018-12-08T07:41:53.128Z,22.30
2018-12-08T07:44:21.850Z,24.00
2018-12-08T07:46:50.525Z,23.20
2018-12-08T07:49:19.209Z,24.30
2018-12-08T07:51:47.897Z,24.60
2018-12-08T07:54:16.593Z,26.20
2018-12-08T07:56:45.299Z,27.40
2018-12-08T07:59:13.969Z,26.70
2018-12-08T08:01:42.947Z,27.70
2018-12-08T08:04:11.621Z,29.00
2018-12-08T08:06:40.303Z,28.50
2018-12-08T08:09:08.990Z,28.20
2018-12-08T08:11:37.613Z,28.10
2018-12-08T08:14:06.306Z,28.60
2018-12-08T08:16:34.969Z,28.00
2018-12-08T08:19:03.694Z,28.10
2018-12-08T08:21:32.394Z,31.00
2018-12-08T08:24:01.086Z,30.50
2018-12-08T08:26:29.789Z,32.10
2018-12-08T08:28:58.538Z,30.70
2018-12-08T08:31:27.324Z,31.90
2018-12-08T08:33:56.092Z,33.00
2018-12-08T08:36:24.788Z,32.00
2018-12-08T08:38:53.428Z,34.40
2018-12-08T08:41:22.055Z,33.80
2018-12-08T08:43:50.740Z,35.30
2018-12-08T08:46:19.444Z,33.40
2018-12-08T08:48:48.069Z,34.70
2018-12-08T08:51:16.751Z,35.50
2018-12-08T08:53:45.383Z,34.10
2018-12-08T08:56:13.994Z,35.80
2018-12-08T08:58:43.064Z,35.00
2018-12-08T09:01:11.694Z,34.60
2018-12-08T09:03:40.655Z,37.00
2018-12-08T09:06:09.287Z,34.90
2018-12-08T09:08:37.971Z,35.50
2018-12-08T09:11:06.611Z,35.50
2018-12-08T09:13:35.296Z,38.40
2018-12-08T09:16:03.944Z,39.20
2018-12-08T09:18:32.638Z,37.80
2018-12-08T09:21:01.264Z,38.60
2018-12-08T09:23:29.961Z,39.80
2018-12-08T09:25:58.717Z,41.10
2018-12-08T09:28:27.329Z,40.80
2018-12-08T09:30:55.989Z,42.10
2018-12-08T09:33:24.614Z,43.20
2018-12-08T09:35:53.313Z,43.30
2018-12-08T09:38:21.964Z,44.80
2018-12-08T09:40:50.610Z,45.70
2018-12-08T09:43:19.252Z,46.60
2018-12-08T09:45:47.957Z,47.80
2018-12-08T09:48:16.618Z,48.80
2018-12-08T09:50:45.291Z,48.70
2018-12-08T09:53:15.182Z,49.60
2018-12-08T09:55:43.924Z,48.80
2018-12-08T09:58:12.591Z,49.80
2018-12-08T10:00:41.288Z,53.10
2018-12-08T10:03:09.882Z,52.90
2018-12-08T10:05:38.707Z,51.10
2018-12-08T10:08:07.684Z,52.20
2018-12-08T10:10:36.356Z,52.40
2018-12-08T10:13:05.052Z,51.20
2018-12-08T10:15:33.703Z,51.10
2018-12-08T10:18:02.359Z,51.00
2018-12-08T10:20:31.003Z,50.40
2018-12-08T10:22:59.665Z,49.20
2018-12-08T10:25:28.395Z,48.70
2018-12-08T10:27:57.070Z,49.50
2018-12-08T10:30:25.690Z,49.40
2018-12-08T10:32:54.324Z,49.00
2018-12-08T10:35:23.012Z,48.90
2018-12-08T10:37:51.740Z,48.20
2018-12-08T10:40:20.421Z,48.30
2018-12-08T10:42:49.207Z,48.00
2018-12-08T10:45:17.934Z,48.30
2018-12-08T10:47:46.620Z,46.80
2018-12-08T10:50:15.282Z,47.10
2018-12-08T10:52:43.937Z,45.40
2018-12-08T10:55:12.719Z,45.90
2018-12-08T10:57:41.343Z,46.70
2018-12-08T11:00:12.237Z,44.90
2018-12-08T11:02:40.898Z,45.50
2018-12-08T11:05:09.570Z,44.20
2018-12-08T11:07:38.343Z,45.80
2018-12-08T11:10:07.106Z,44.50
2018-12-08T11:12:37.481Z,44.10
2018-12-08T11:15:06.585Z,43.70
2018-12-08T11:17:35.298Z,42.00
2018-12-08T11:20:04.021Z,41.50
2018-12-08T11:22:32.682Z,41.50
2018-12-08T11:25:01.377Z,40.90
2018-12-08T11:27:30.075Z,41.20
2018-12-08T11:29:58.790Z,40.80
2018-12-08T11:32:27.440Z,39.50
2018-12-08T11:34:56.120Z,38.10
2018-12-08T11:37:24.769Z,38.70
2018-12-08T11:39:53.476Z,38.00
2018-12-08T11:42:22.115Z,37.00
2018-12-08T11:44:50.998Z,37.30
2018-12-08T11:47:19.658Z,36.80
2018-12-08T11:49:48.335Z,36.60
2018-12-08T11:52:16.924Z,35.90
2018-12-08T11:54:45.590Z,35.10
2018-12-08T11:57:14.241Z,35.60
2018-12-08T11:59:42.881Z,33.70
2018-12-08T12:02:16.512Z,34.50
2018-12-08T12:04:42.303Z,34.20
2018-12-08T12:07:10.914Z,34.20
2018-12-08T12:09:39.751Z,34.80
2018-12-08T12:12:08.408Z,34.10
2018-12-08T12:14:45.415Z,36.80
2018-12-08T12:17:14.082Z,37.20
2018-12-08T12:19:42.721Z,36.10
2018-12-08T12:22:11.398Z,38.40
2018-12-08T12:24:40.004Z,38.50
2018-12-08T12:27:08.664Z,38.50
2018-12-08T12:29:37.317Z,37.60
2018-12-08T12:32:05.966Z,37.40
2018-12-08T12:34:34.621Z,37.40
2018-12-08T12:37:03.400Z,36.40
2018-12-08T12:39:32.097Z,36.60
2018-12-08T12:42:00.747Z,35.40
2018-12-08T12:44:36.456Z,34.90
2018-12-08T12:47:05.097Z,35.10
2018-12-08T12:49:33.701Z,35.30
2018-12-08T12:52:02.404Z,34.50
2018-12-08T12:54:31.066Z,34.50
2018-12-08T12:56:59.688Z,33.80
2018-12-08T12:59:28.308Z,34.10
2018-12-08T13:01:56.925Z,33.70
2018-12-08T13:04:25.550Z,33.10
2018-12-08T13:06:54.240Z,34.60
2018-12-08T13:09:23.310Z,32.50
2018-12-08T13:11:52.543Z,33.00
2018-12-08T13:14:21.158Z,31.60
2018-12-08T13:16:49.798Z,31.60
2018-12-08T13:19:18.473Z,31.70
2018-12-08T13:21:47.164Z,31.70
2018-12-08T13:24:15.796Z,30.80
2018-12-08T13:26:44.415Z,31.70
2018-12-08T13:29:13.036Z,30.40
2018-12-08T13:31:41.692Z,31.20
2018-12-08T13:34:25.862Z,30.20
2018-12-08T13:36:54.551Z,30.00
2018-12-08T13:39:23.211Z,29.20
2018-12-08T13:41:51.891Z,29.40
2018-12-08T13:44:34.247Z,29.60
2018-12-08T13:47:06.058Z,29.70
2018-12-08T13:49:35.954Z,29.60
2018-12-08T13:52:04.753Z,28.90
2018-12-08T13:54:48.682Z,28.90
2018-12-08T13:57:17.310Z,28.90
2018-12-08T14:02:48.895Z,28.90
2018-12-08T14:05:18.328Z,28.50
2018-12-08T14:07:47.536Z,28.50
2018-12-08T14:10:16.793Z,28.40
2018-12-08T14:12:46.097Z,28.30
2018-12-08T14:15:15.248Z,28.40
2018-12-08T14:17:44.422Z,27.60
2018-12-08T14:20:21.521Z,28.80
2018-12-08T14:22:50.821Z,28.40
2018-12-08T14:25:20.061Z,28.10
2018-12-08T14:27:50.391Z,27.90
2018-12-08T14:30:19.115Z,28.10
2018-12-08T14:32:47.757Z,28.20
2018-12-08T14:35:16.505Z,28.30
2018-12-08T14:37:45.919Z,27.80
2018-12-08T14:40:15.061Z,27.50
2018-12-08T14:42:44.288Z,28.00
2018-12-08T14:45:13.559Z,27.50
2018-12-08T14:47:43.523Z,28.10
2018-12-08T14:50:12.748Z,27.80
2018-12-08T14:52:42.108Z,28.10
2018-12-08T14:55:11.213Z,28.10
2018-12-08T14:57:40.739Z,28.00
2018-12-08T15:00:10.527Z,27.90
2018-12-08T15:02:39.879Z,27.80
2018-12-08T15:05:09.341Z,27.60
2018-12-08T15:07:38.743Z,28.20
2018-12-08T15:10:07.789Z,28.20
2018-12-08T15:12:36.500Z,26.90
2018-12-08T15:15:05.404Z,27.60
2018-12-08T15:17:34.050Z,27.30
2018-12-08T15:20:02.724Z,27.50
2018-12-08T15:22:31.426Z,28.00
2018-12-08T15:25:00.937Z,28.00
2018-12-08T15:27:30.374Z,27.30
2018-12-08T15:29:59.456Z,27.00
2018-12-08T15:32:28.462Z,27.30
2018-12-08T15:34:57.532Z,27.40
2018-12-08T15:37:26.585Z,26.80
2018-12-08T15:39:56.099Z,27.50
2018-12-08T15:42:25.198Z,27.10
2018-12-08T15:44:54.377Z,27.00
2018-12-08T15:47:23.463Z,26.10
2018-12-08T15:49:52.890Z,26.20
2018-12-08T15:52:21.970Z,26.10
2018-12-08T15:54:51.151Z,26.00
2018-12-08T15:57:20.335Z,26.10
2018-12-08T15:59:49.153Z,25.70
2018-12-08T16:02:18.135Z,25.70
2018-12-08T16:04:47.462Z,25.80
2018-12-08T16:07:16.602Z,25.60
2018-12-08T16:09:46.453Z,25.60
2018-12-08T16:12:15.856Z,25.50
2018-12-08T16:14:45.683Z,25.60
2018-12-08T16:17:15.190Z,25.40
2018-12-08T16:19:44.237Z,25.00
2018-12-08T16:22:13.579Z,25.10
2018-12-08T16:24:42.874Z,24.80
2018-12-08T16:27:11.961Z,24.70
2018-12-08T16:29:41.072Z,24.70
2018-12-08T16:32:10.348Z,24.80
2018-12-08T16:34:39.658Z,24.30
2018-12-08T16:37:08.706Z,24.20
2018-12-08T16:39:37.875Z,23.90
2018-12-08T16:42:07.042Z,24.10
2018-12-08T16:44:36.026Z,23.80
2018-12-08T16:47:04.989Z,24.80
2018-12-08T16:49:33.674Z,24.20
2018-12-08T16:52:02.423Z,24.30
2018-12-08T16:54:31.309Z,23.70
2018-12-08T16:57:00.857Z,23.90
2018-12-08T16:59:30.061Z,23.30
2018-12-08T17:01:59.122Z,23.90
2018-12-08T17:04:28.444Z,24.00
2018-12-08T17:06:57.779Z,23.50
2018-12-08T17:09:27.248Z,23.80
2018-12-08T17:11:57.197Z,24.50
2018-12-08T17:14:26.842Z,23.30
2018-12-08T17:16:56.363Z,23.70
2018-12-08T17:19:26.045Z,23.70
2018-12-08T17:21:55.132Z,23.50
2018-12-08T17:24:24.978Z,24.20
2018-12-08T17:26:54.339Z,23.40
2018-12-08T17:29:23.158Z,23.90
2018-12-08T17:31:52.237Z,23.20
2018-12-08T17:34:21.480Z,23.60
2018-12-08T17:36:51.015Z,23.10
2018-12-08T17:39:20.583Z,23.40
2018-12-08T17:41:49.903Z,23.30
2018-12-08T17:44:18.940Z,23.70
2018-12-08T17:46:48.029Z,23.40
2018-12-08T17:49:17.125Z,23.60
2018-12-08T17:51:46.833Z,23.30
2018-12-08T17:54:16.158Z,23.30
2018-12-08T17:56:45.225Z,23.70
2018-12-08T17:59:14.958Z,22.70
2018-12-08T18:01:44.006Z,23.50
2018-12-08T18:04:13.986Z,23.10
2018-12-08T18:06:42.855Z,23.10
2018-12-08T18:09:11.719Z,23.20
2018-12-08T18:11:40.422Z,23.30
2018-12-08T18:14:09.154Z,23.00
2018-12-08T18:16:37.988Z,23.30
2018-12-08T18:19:07.233Z,23.50
2018-12-08T18:21:36.293Z,23.80
2018-12-08T18:24:05.181Z,23.30
2018-12-08T18:26:34.032Z,23.20
2018-12-08T18:29:03.576Z,23.40
2018-12-08T18:31:32.896Z,22.60
2018-12-08T18:34:02.187Z,22.60
2018-12-08T18:36:31.311Z,22.50
2018-12-08T18:39:01.053Z,22.80
2018-12-08T18:41:29.714Z,22.90
2018-12-08T18:43:59.103Z,22.70
2018-12-08T18:46:28.698Z,23.80
2018-12-08T18:48:58.016Z,26.50
2018-12-08T18:51:27.049Z,29.30
2018-12-08T18:53:56.622Z,31.50
2018-12-08T18:56:25.907Z,30.20
2018-12-08T18:58:54.666Z,29.80
2018-12-08T19:01:23.478Z,28.30
2018-12-08T19:03:52.816Z,29.60
2018-12-08T19:06:22.362Z,29.80
2018-12-08T19:08:51.483Z,28.00
2018-12-08T19:11:20.879Z,28.10
2018-12-08T19:13:50.539Z,27.80
2018-12-08T19:16:19.755Z,27.70
2018-12-08T19:18:48.910Z,28.50
2018-12-08T19:21:18.005Z,27.80
2018-12-08T19:23:47.678Z,28.70
2018-12-08T19:26:17.730Z,27.70
2018-12-08T19:28:47.087Z,27.10
2018-12-08T19:31:16.232Z,25.40
2018-12-08T19:33:45.484Z,24.90
2018-12-08T19:36:16.373Z,26.00
2018-12-08T19:38:45.285Z,27.40
2018-12-08T19:41:13.928Z,27.50
2018-12-08T19:43:43.564Z,29.20
2018-12-08T19:46:12.273Z,31.80
2018-12-08T19:48:41.358Z,33.20
2018-12-08T19:51:10.534Z,32.30
2018-12-08T19:53:39.898Z,33.60
2018-12-08T19:56:09.164Z,34.80
2018-12-08T19:58:38.506Z,33.80
2018-12-08T20:01:07.717Z,33.70
2018-12-08T20:03:36.904Z,32.60
2018-12-08T20:06:06.436Z,33.10
2018-12-08T20:08:35.731Z,34.30
2018-12-08T20:11:04.978Z,33.40
2018-12-08T20:13:34.532Z,35.40
2018-12-08T20:16:03.597Z,35.10
2018-12-08T20:18:32.992Z,34.40
2018-12-08T20:21:02.308Z,33.80
2018-12-08T20:23:31.579Z,34.00
2018-12-08T20:26:01.152Z,33.80
2018-12-08T20:28:29.990Z,32.00
2018-12-08T20:30:58.705Z,30.90
2018-12-08T20:33:28.311Z,29.70
2018-12-08T20:35:57.638Z,27.80
2018-12-08T20:38:26.823Z,28.80
2018-12-08T20:40:56.939Z,27.00
2018-12-08T20:43:26.121Z,27.40
2018-12-08T20:45:55.828Z,27.60
2018-12-08T20:48:24.915Z,27.40
2018-12-08T20:50:54.433Z,27.20
2018-12-08T20:53:23.462Z,26.70
2018-12-08T20:55:52.527Z,26.40
2018-12-08T20:58:21.648Z,27.00
2018-12-08T21:00:51.220Z,25.20
2018-12-08T21:03:20.146Z,24.90
2018-12-08T21:05:49.278Z,24.40
2018-12-08T21:08:17.972Z,24.20
2018-12-08T21:10:46.688Z,23.90
2018-12-08T21:13:15.375Z,25.10
2018-12-08T21:15:44.074Z,24.70
2018-12-08T21:18:13.332Z,25.50
2018-12-08T21:20:42.883Z,25.40
2018-12-08T21:23:11.940Z,25.40
2018-12-08T21:25:48.612Z,25.30
2018-12-08T21:28:18.273Z,25.70
2018-12-08T21:30:47.549Z,26.30
2018-12-08T21:33:17.042Z,26.20
2018-12-08T21:35:46.585Z,26.40
2018-12-08T21:38:16.153Z,25.90
2018-12-08T21:40:45.473Z,26.30
2018-12-08T21:43:14.811Z,25.70
2018-12-08T21:45:44.101Z,25.10
2018-12-08T21:48:13.408Z,25.40
2018-12-08T21:50:42.448Z,26.00
2018-12-08T21:53:11.140Z,25.40
2018-12-08T21:55:39.903Z,24.90
2018-12-08T21:58:09.332Z,25.50
2018-12-08T22:00:37.969Z,25.30
2018-12-08T22:03:07.339Z,25.10
2018-12-08T22:05:36.592Z,25.20
2018-12-08T22:08:06.189Z,25.10
2018-12-08T22:10:35.265Z,24.90
2018-12-08T22:13:04.469Z,24.50
2018-12-08T22:15:33.371Z,25.30
2018-12-08T22:18:02.710Z,24.90
2018-12-08T22:20:31.982Z,23.90
2018-12-08T22:23:01.510Z,23.80
2018-12-08T22:25:30.627Z,23.50
2018-12-08T22:28:00.116Z,23.10
2018-12-08T22:30:29.367Z,22.70
2018-12-08T22:32:58.057Z,23.10
2018-12-08T22:35:27.588Z,22.80
2018-12-08T22:37:56.345Z,22.50
2018-12-08T22:40:25.038Z,23.00
2018-12-08T22:42:53.669Z,22.80
2018-12-08T22:45:22.813Z,22.40
2018-12-08T22:47:52.363Z,22.40
2018-12-08T22:50:21.627Z,22.30
2018-12-08T22:52:50.756Z,22.10
2018-12-08T22:55:20.100Z,22.60
2018-12-08T22:57:49.392Z,22.20
2018-12-08T23:00:29.552Z,22.20
2018-12-08T23:02:58.581Z,22.10
2018-12-08T23:05:27.881Z,22.30
2018-12-08T23:07:57.222Z,22.80
2018-12-08T23:10:26.504Z,22.40
2018-12-08T23:12:55.690Z,22.10
2018-12-08T23:15:24.836Z,22.90
2018-12-08T23:17:54.084Z,22.70
2018-12-08T23:20:25.129Z,22.00
2018-12-08T23:22:54.043Z,21.50
2018-12-08T23:25:22.816Z,21.80
2018-12-08T23:27:51.481Z,22.20
2018-12-08T23:30:20.836Z,22.10
2018-12-08T23:32:50.247Z,22.20
2018-12-08T23:35:19.558Z,21.90
2018-12-08T23:37:48.683Z,21.40
2018-12-08T23:40:18.418Z,21.00
2018-12-08T23:42:47.673Z,21.30
2018-12-08T23:45:17.100Z,21.20
2018-12-08T23:47:46.460Z,21.50
2018-12-08T23:50:15.776Z,21.50
2018-12-08T23:52:45.088Z,21.00
2018-12-08T23:55:14.425Z,21.20
2018-12-08T23:57:43.719Z,21.20
